sensor_id;sensor_type;location;lat;lon;timestamp;temperature;humidity
18581;DHT22;9420;50.876;7.012;2022-09-25T00:01:02;13.70;99.90
18581;DHT22;9420;50.876;7.012;2022-09-25T00:03:31;13.70;99.90
18581;DHT22;9420;50.876;7.012;2022-09-25T00:06:05;13.70;99.90
18581;DHT22;9420;50.876;7.012;2022-09-25T00:08:33;13.60;99.90
18581;DHT22;9420;50.876;7.012;2022-09-25T00:11:05;13.60;99.90
18581;DHT22;9420;50.876;7.012;2022-09-25T00:13:34;13.60;99.90
18581;DHT22;9420;50.876;7.012;2022-09-25T00:16:02;13.60;99.90
18581;DHT22;9420;50.876;7.012;2022-09-25T00:18:30;13.50;99.90
18581;DHT22;9420;50.876;7.012;2022-09-25T00:21:16;13.50;99.90
18581;DHT22;9420;50.876;7.012;2022-09-25T00:23:45;13.50;99.90
18581;DHT22;9420;50.876;7.012;2022-09-25T00:26:15;13.40;99.90
18581;DHT22;9420;50.876;7.012;2022-09-25T00:28:43;13.40;99.90
18581;DHT22;9420;50.876;7.012;2022-09-25T00:31:11;13.40;99.90
18581;DHT22;9420;50.876;7.012;2022-09-25T00:33:44;13.40;99.90
18581;DHT22;9420;50.876;7.012;2022-09-25T00:36:11;13.40;99.90
18581;DHT22;9420;50.876;7.012;2022-09-25T00:38:40;13.40;99.90
18581;DHT22;9420;50.876;7.012;2022-09-25T00:41:08;13.40;99.90
18581;DHT22;9420;50.876;7.012;2022-09-25T00:43:37;13.40;99.90
18581;DHT22;9420;50.876;7.012;2022-09-25T00:46:09;13.40;99.90
18581;DHT22;9420;50.876;7.012;2022-09-25T00:48:44;13.30;99.90
18581;DHT22;9420;50.876;7.012;2022-09-25T00:51:17;13.30;99.90
18581;DHT22;9420;50.876;7.012;2022-09-25T00:53:56;13.30;99.90
18581;DHT22;9420;50.876;7.012;2022-09-25T00:56:29;13.30;99.90
18581;DHT22;9420;50.876;7.012;2022-09-25T00:59:01;13.30;99.90
18581;DHT22;9420;50.876;7.012;2022-09-25T01:01:28;13.20;99.90
18581;DHT22;9420;50.876;7.012;2022-09-25T01:03:55;13.20;99.90
18581;DHT22;9420;50.876;7.012;2022-09-25T01:06:23;13.20;99.90
18581;DHT22;9420;50.876;7.012;2022-09-25T01:08:52;13.20;99.90
18581;DHT22;9420;50.876;7.012;2022-09-25T01:11:22;13.20;99.90
18581;DHT22;9420;50.876;7.012;2022-09-25T01:13:51;13.20;99.90
18581;DHT22;9420;50.876;7.012;2022-09-25T01:16:26;13.10;99.90
18581;DHT22;9420;50.876;7.012;2022-09-25T01:19:10;13.10;99.90
18581;DHT22;9420;50.876;7.012;2022-09-25T01:21:50;13.10;99.90
18581;DHT22;9420;50.876;7.012;2022-09-25T01:27:37;13.10;99.90
18581;DHT22;9420;50.876;7.012;2022-09-25T01:30:11;13.10;99.90
18581;DHT22;9420;50.876;7.012;2022-09-25T01:32:48;13.10;99.90
18581;DHT22;9420;50.876;7.012;2022-09-25T01:35:38;13.10;99.90
18581;DHT22;9420;50.876;7.012;2022-09-25T01:38:20;13.10;99.90
18581;DHT22;9420;50.876;7.012;2022-09-25T01:40:57;13.10;99.90
18581;DHT22;9420;50.876;7.012;2022-09-25T01:43:33;13.10;99.90
18581;DHT22;9420;50.876;7.012;2022-09-25T01:46:09;13.20;99.90
18581;DHT22;9420;50.876;7.012;2022-09-25T01:48:41;13.10;99.90
18581;DHT22;9420;50.876;7.012;2022-09-25T01:51:15;13.20;99.90
18581;DHT22;9420;50.876;7.012;2022-09-25T01:53:48;13.10;99.90
18581;DHT22;9420;50.876;7.012;2022-09-25T01:56:22;13.10;99.90
18581;DHT22;9420;50.876;7.012;2022-09-25T01:58:58;13.10;99.90
18581;DHT22;9420;50.876;7.012;2022-09-25T02:01:34;13.20;99.90
18581;DHT22;9420;50.876;7.012;2022-09-25T02:04:09;13.10;99.90
18581;DHT22;9420;50.876;7.012;2022-09-25T02:06:42;13.10;99.90
18581;DHT22;9420;50.876;7.012;2022-09-25T02:09:15;13.10;99.90
18581;DHT22;9420;50.876;7.012;2022-09-25T02:11:49;13.20;99.90
18581;DHT22;9420;50.876;7.012;2022-09-25T02:14:21;13.10;99.90
18581;DHT22;9420;50.876;7.012;2022-09-25T02:16:53;13.20;99.90
18581;DHT22;9420;50.876;7.012;2022-09-25T02:19:23;13.20;99.90
18581;DHT22;9420;50.876;7.012;2022-09-25T02:22:14;13.20;99.90
18581;DHT22;9420;50.876;7.012;2022-09-25T02:24:48;13.20;99.90
18581;DHT22;9420;50.876;7.012;2022-09-25T02:27:20;13.20;99.90
18581;DHT22;9420;50.876;7.012;2022-09-25T02:29:49;13.30;99.90
18581;DHT22;9420;50.876;7.012;2022-09-25T02:32:20;13.20;99.90
18581;DHT22;9420;50.876;7.012;2022-09-25T02:34:51;13.30;99.90
18581;DHT22;9420;50.876;7.012;2022-09-25T02:37:18;13.20;99.90
18581;DHT22;9420;50.876;7.012;2022-09-25T02:39:49;13.30;99.90
18581;DHT22;9420;50.876;7.012;2022-09-25T02:42:26;13.20;99.90
18581;DHT22;9420;50.876;7.012;2022-09-25T02:45:10;13.30;99.90
18581;DHT22;9420;50.876;7.012;2022-09-25T02:47:57;13.30;99.90
18581;DHT22;9420;50.876;7.012;2022-09-25T02:50:39;13.30;99.90
18581;DHT22;9420;50.876;7.012;2022-09-25T02:53:14;13.30;99.90
18581;DHT22;9420;50.876;7.012;2022-09-25T02:55:50;13.30;99.90
18581;DHT22;9420;50.876;7.012;2022-09-25T02:58:26;13.30;99.90
18581;DHT22;9420;50.876;7.012;2022-09-25T03:00:59;13.30;99.90
18581;DHT22;9420;50.876;7.012;2022-09-25T03:03:31;13.30;99.90
18581;DHT22;9420;50.876;7.012;2022-09-25T03:06:02;13.30;99.90
18581;DHT22;9420;50.876;7.012;2022-09-25T03:08:34;13.30;99.90
18581;DHT22;9420;50.876;7.012;2022-09-25T03:11:03;13.30;99.90
18581;DHT22;9420;50.876;7.012;2022-09-25T03:13:32;13.30;99.90
18581;DHT22;9420;50.876;7.012;2022-09-25T03:16:01;13.30;99.90
18581;DHT22;9420;50.876;7.012;2022-09-25T03:18:31;13.30;99.90
18581;DHT22;9420;50.876;7.012;2022-09-25T03:20:59;13.30;99.90
18581;DHT22;9420;50.876;7.012;2022-09-25T03:23:26;13.30;99.90
18581;DHT22;9420;50.876;7.012;2022-09-25T03:25:53;13.20;99.90
18581;DHT22;9420;50.876;7.012;2022-09-25T03:28:21;13.20;99.90
18581;DHT22;9420;50.876;7.012;2022-09-25T03:30:55;13.20;99.90
18581;DHT22;9420;50.876;7.012;2022-09-25T03:33:24;13.20;99.90
18581;DHT22;9420;50.876;7.012;2022-09-25T03:36:03;13.20;99.90
18581;DHT22;9420;50.876;7.012;2022-09-25T03:38:32;13.10;99.90
18581;DHT22;9420;50.876;7.012;2022-09-25T03:40:59;13.10;99.90
18581;DHT22;9420;50.876;7.012;2022-09-25T03:43:26;13.10;99.90
18581;DHT22;9420;50.876;7.012;2022-09-25T03:45:56;13.10;99.90
18581;DHT22;9420;50.876;7.012;2022-09-25T03:48:23;13.10;99.90
18581;DHT22;9420;50.876;7.012;2022-09-25T03:50:50;13.10;99.90
18581;DHT22;9420;50.876;7.012;2022-09-25T03:53:19;13.10;99.90
18581;DHT22;9420;50.876;7.012;2022-09-25T03:55:46;13.10;99.90
18581;DHT22;9420;50.876;7.012;2022-09-25T03:58:14;13.10;99.90
18581;DHT22;9420;50.876;7.012;2022-09-25T04:00:41;13.10;99.90
18581;DHT22;9420;50.876;7.012;2022-09-25T04:03:10;13.10;99.90
18581;DHT22;9420;50.876;7.012;2022-09-25T04:05:37;13.10;99.90
18581;DHT22;9420;50.876;7.012;2022-09-25T04:08:04;13.10;99.90
18581;DHT22;9420;50.876;7.012;2022-09-25T04:10:33;13.10;99.90
18581;DHT22;9420;50.876;7.012;2022-09-25T04:13:04;13.10;99.90
18581;DHT22;9420;50.876;7.012;2022-09-25T04:15:31;13.00;99.90
18581;DHT22;9420;50.876;7.012;2022-09-25T04:17:59;13.00;99.90
18581;DHT22;9420;50.876;7.012;2022-09-25T04:20:26;13.00;99.90
18581;DHT22;9420;50.876;7.012;2022-09-25T04:22:53;13.00;99.90
18581;DHT22;9420;50.876;7.012;2022-09-25T04:25:20;13.00;99.90
18581;DHT22;9420;50.876;7.012;2022-09-25T04:27:52;13.00;99.90
18581;DHT22;9420;50.876;7.012;2022-09-25T04:30:21;13.00;99.90
18581;DHT22;9420;50.876;7.012;2022-09-25T04:32:48;13.00;99.90
18581;DHT22;9420;50.876;7.012;2022-09-25T04:35:33;13.00;99.90
18581;DHT22;9420;50.876;7.012;2022-09-25T04:38:00;13.00;99.90
18581;DHT22;9420;50.876;7.012;2022-09-25T04:40:27;13.00;99.90
18581;DHT22;9420;50.876;7.012;2022-09-25T04:42:56;13.00;99.90
18581;DHT22;9420;50.876;7.012;2022-09-25T04:45:24;13.00;99.90
18581;DHT22;9420;50.876;7.012;2022-09-25T04:47:52;13.00;99.90
18581;DHT22;9420;50.876;7.012;2022-09-25T04:50:19;13.00;99.90
18581;DHT22;9420;50.876;7.012;2022-09-25T04:52:46;13.00;99.90
18581;DHT22;9420;50.876;7.012;2022-09-25T04:55:14;13.00;99.90
18581;DHT22;9420;50.876;7.012;2022-09-25T04:57:42;13.00;99.90
18581;DHT22;9420;50.876;7.012;2022-09-25T05:00:12;13.00;99.90
18581;DHT22;9420;50.876;7.012;2022-09-25T05:02:41;13.00;99.90
18581;DHT22;9420;50.876;7.012;2022-09-25T05:05:08;13.00;99.90
18581;DHT22;9420;50.876;7.012;2022-09-25T05:07:36;12.90;99.90
18581;DHT22;9420;50.876;7.012;2022-09-25T05:10:03;12.90;99.90
18581;DHT22;9420;50.876;7.012;2022-09-25T05:12:32;12.90;99.90
18581;DHT22;9420;50.876;7.012;2022-09-25T05:14:59;12.90;99.90
18581;DHT22;9420;50.876;7.012;2022-09-25T05:17:28;12.90;99.90
18581;DHT22;9420;50.876;7.012;2022-09-25T05:19:55;12.90;99.90
18581;DHT22;9420;50.876;7.012;2022-09-25T05:22:22;12.90;99.90
18581;DHT22;9420;50.876;7.012;2022-09-25T05:24:49;12.90;99.90
18581;DHT22;9420;50.876;7.012;2022-09-25T05:27:18;12.90;99.90
18581;DHT22;9420;50.876;7.012;2022-09-25T05:29:47;12.90;99.90
18581;DHT22;9420;50.876;7.012;2022-09-25T05:32:14;12.90;99.90
18581;DHT22;9420;50.876;7.012;2022-09-25T05:34:43;12.90;99.90
18581;DHT22;9420;50.876;7.012;2022-09-25T05:37:10;12.90;99.90
18581;DHT22;9420;50.876;7.012;2022-09-25T05:39:37;12.90;99.90
18581;DHT22;9420;50.876;7.012;2022-09-25T05:42:04;12.90;99.90
18581;DHT22;9420;50.876;7.012;2022-09-25T05:44:31;12.80;99.90
18581;DHT22;9420;50.876;7.012;2022-09-25T05:46:58;12.80;99.90
18581;DHT22;9420;50.876;7.012;2022-09-25T05:49:25;12.80;99.90
18581;DHT22;9420;50.876;7.012;2022-09-25T05:51:54;12.90;99.90
18581;DHT22;9420;50.876;7.012;2022-09-25T05:54:21;12.90;99.90
18581;DHT22;9420;50.876;7.012;2022-09-25T05:56:48;12.90;99.90
18581;DHT22;9420;50.876;7.012;2022-09-25T05:59:15;12.90;99.90
18581;DHT22;9420;50.876;7.012;2022-09-25T06:01:42;12.90;99.90
18581;DHT22;9420;50.876;7.012;2022-09-25T06:04:09;12.90;99.90
18581;DHT22;9420;50.876;7.012;2022-09-25T06:06:36;12.90;99.90
18581;DHT22;9420;50.876;7.012;2022-09-25T06:09:05;12.90;99.90
18581;DHT22;9420;50.876;7.012;2022-09-25T06:11:32;12.90;99.90
18581;DHT22;9420;50.876;7.012;2022-09-25T06:13:59;12.90;99.90
18581;DHT22;9420;50.876;7.012;2022-09-25T06:16:27;12.90;99.90
18581;DHT22;9420;50.876;7.012;2022-09-25T06:18:54;12.90;99.90
18581;DHT22;9420;50.876;7.012;2022-09-25T06:21:21;12.80;99.90
18581;DHT22;9420;50.876;7.012;2022-09-25T06:23:48;12.80;99.90
18581;DHT22;9420;50.876;7.012;2022-09-25T06:26:16;12.80;99.90
18581;DHT22;9420;50.876;7.012;2022-09-25T06:28:44;12.80;99.90
18581;DHT22;9420;50.876;7.012;2022-09-25T06:31:11;12.80;99.90
18581;DHT22;9420;50.876;7.012;2022-09-25T06:33:38;12.80;99.90
18581;DHT22;9420;50.876;7.012;2022-09-25T06:36:05;12.90;99.90
18581;DHT22;9420;50.876;7.012;2022-09-25T06:38:32;12.90;99.90
18581;DHT22;9420;50.876;7.012;2022-09-25T06:40:59;12.90;99.90
18581;DHT22;9420;50.876;7.012;2022-09-25T06:43:28;12.90;99.90
18581;DHT22;9420;50.876;7.012;2022-09-25T06:45:58;12.90;99.90
18581;DHT22;9420;50.876;7.012;2022-09-25T06:48:28;13.00;99.90
18581;DHT22;9420;50.876;7.012;2022-09-25T06:50:56;13.00;99.90
18581;DHT22;9420;50.876;7.012;2022-09-25T06:53:25;13.00;99.90
18581;DHT22;9420;50.876;7.012;2022-09-25T06:55:55;12.90;99.90
18581;DHT22;9420;50.876;7.012;2022-09-25T06:58:24;12.90;99.90
18581;DHT22;9420;50.876;7.012;2022-09-25T07:00:54;12.80;99.90
18581;DHT22;9420;50.876;7.012;2022-09-25T07:03:22;12.80;99.90
18581;DHT22;9420;50.876;7.012;2022-09-25T07:06:08;12.80;99.90
18581;DHT22;9420;50.876;7.012;2022-09-25T07:08:37;12.80;99.90
18581;DHT22;9420;50.876;7.012;2022-09-25T07:11:05;12.90;99.90
18581;DHT22;9420;50.876;7.012;2022-09-25T07:13:34;12.80;99.90
18581;DHT22;9420;50.876;7.012;2022-09-25T07:16:04;12.70;99.90
18581;DHT22;9420;50.876;7.012;2022-09-25T07:18:33;12.70;99.90
18581;DHT22;9420;50.876;7.012;2022-09-25T07:21:02;12.70;99.90
18581;DHT22;9420;50.876;7.012;2022-09-25T07:23:32;12.70;99.90
18581;DHT22;9420;50.876;7.012;2022-09-25T07:26:05;12.70;99.90
18581;DHT22;9420;50.876;7.012;2022-09-25T07:28:33;12.80;99.90
18581;DHT22;9420;50.876;7.012;2022-09-25T07:31:14;12.80;99.90
18581;DHT22;9420;50.876;7.012;2022-09-25T07:33:43;12.90;99.90
18581;DHT22;9420;50.876;7.012;2022-09-25T07:36:11;12.80;99.90
18581;DHT22;9420;50.876;7.012;2022-09-25T07:38:39;12.90;99.90
18581;DHT22;9420;50.876;7.012;2022-09-25T07:41:09;13.00;99.90
18581;DHT22;9420;50.876;7.012;2022-09-25T07:43:37;13.00;99.90
18581;DHT22;9420;50.876;7.012;2022-09-25T07:46:05;13.10;99.90
18581;DHT22;9420;50.876;7.012;2022-09-25T07:48:33;13.10;99.90
18581;DHT22;9420;50.876;7.012;2022-09-25T07:51:01;13.20;99.90
18581;DHT22;9420;50.876;7.012;2022-09-25T07:53:29;13.30;99.90
18581;DHT22;9420;50.876;7.012;2022-09-25T07:55:56;13.30;99.90
18581;DHT22;9420;50.876;7.012;2022-09-25T07:58:24;13.30;99.90
18581;DHT22;9420;50.876;7.012;2022-09-25T08:00:52;13.30;99.90
18581;DHT22;9420;50.876;7.012;2022-09-25T08:03:20;13.30;99.90
18581;DHT22;9420;50.876;7.012;2022-09-25T08:05:56;13.30;99.90
18581;DHT22;9420;50.876;7.012;2022-09-25T08:08:24;13.30;99.90
18581;DHT22;9420;50.876;7.012;2022-09-25T08:10:52;13.30;99.90
18581;DHT22;9420;50.876;7.012;2022-09-25T08:13:20;13.40;99.90
18581;DHT22;9420;50.876;7.012;2022-09-25T08:15:47;13.50;99.90
18581;DHT22;9420;50.876;7.012;2022-09-25T08:18:14;13.70;99.90
18581;DHT22;9420;50.876;7.012;2022-09-25T08:20:41;13.80;99.90
18581;DHT22;9420;50.876;7.012;2022-09-25T08:23:10;13.90;99.90
18581;DHT22;9420;50.876;7.012;2022-09-25T08:25:36;14.10;99.90
18581;DHT22;9420;50.876;7.012;2022-09-25T08:28:03;14.20;99.90
18581;DHT22;9420;50.876;7.012;2022-09-25T08:30:32;14.30;99.90
18581;DHT22;9420;50.876;7.012;2022-09-25T08:32:59;14.50;99.90
18581;DHT22;9420;50.876;7.012;2022-09-25T08:35:26;14.50;99.90
18581;DHT22;9420;50.876;7.012;2022-09-25T08:37:53;14.60;99.90
18581;DHT22;9420;50.876;7.012;2022-09-25T08:40:24;14.60;99.90
18581;DHT22;9420;50.876;7.012;2022-09-25T08:42:56;14.50;99.90
18581;DHT22;9420;50.876;7.012;2022-09-25T08:45:27;14.50;99.90
18581;DHT22;9420;50.876;7.012;2022-09-25T08:48:19;14.40;99.90
18581;DHT22;9420;50.876;7.012;2022-09-25T08:51:07;14.40;99.90
18581;DHT22;9420;50.876;7.012;2022-09-25T08:53:36;14.40;99.90
18581;DHT22;9420;50.876;7.012;2022-09-25T08:56:09;14.40;99.90
18581;DHT22;9420;50.876;7.012;2022-09-25T08:58:46;14.50;99.90
18581;DHT22;9420;50.876;7.012;2022-09-25T09:01:19;14.60;99.90
18581;DHT22;9420;50.876;7.012;2022-09-25T09:03:54;14.50;99.90
18581;DHT22;9420;50.876;7.012;2022-09-25T09:06:28;14.50;99.90
18581;DHT22;9420;50.876;7.012;2022-09-25T09:09:01;14.50;99.90
18581;DHT22;9420;50.876;7.012;2022-09-25T09:11:37;14.40;99.90
18581;DHT22;9420;50.876;7.012;2022-09-25T09:14:12;14.50;99.90
18581;DHT22;9420;50.876;7.012;2022-09-25T09:16:45;14.40;99.90
18581;DHT22;9420;50.876;7.012;2022-09-25T09:19:20;14.40;99.90
18581;DHT22;9420;50.876;7.012;2022-09-25T09:21:51;14.30;99.90
18581;DHT22;9420;50.876;7.012;2022-09-25T09:24:30;14.40;99.90
18581;DHT22;9420;50.876;7.012;2022-09-25T09:27:20;14.50;99.90
18581;DHT22;9420;50.876;7.012;2022-09-25T09:30:08;14.70;99.90
18581;DHT22;9420;50.876;7.012;2022-09-25T09:36:06;15.30;99.90
18581;DHT22;9420;50.876;7.012;2022-09-25T09:38:45;15.40;99.90
18581;DHT22;9420;50.876;7.012;2022-09-25T09:41:38;15.50;99.90
18581;DHT22;9420;50.876;7.012;2022-09-25T09:44:24;15.80;99.90
18581;DHT22;9420;50.876;7.012;2022-09-25T09:47:09;16.20;99.90
18581;DHT22;9420;50.876;7.012;2022-09-25T09:49:51;16.50;99.90
18581;DHT22;9420;50.876;7.012;2022-09-25T09:52:27;16.50;99.90
18581;DHT22;9420;50.876;7.012;2022-09-25T09:55:02;16.50;99.90
18581;DHT22;9420;50.876;7.012;2022-09-25T09:57:54;16.30;99.90
18581;DHT22;9420;50.876;7.012;2022-09-25T10:00:35;16.10;99.90
18581;DHT22;9420;50.876;7.012;2022-09-25T10:03:08;15.90;99.90
18581;DHT22;9420;50.876;7.012;2022-09-25T10:05:42;15.80;99.90
18581;DHT22;9420;50.876;7.012;2022-09-25T10:08:12;15.70;99.90
18581;DHT22;9420;50.876;7.012;2022-09-25T10:10:41;15.80;99.90
18581;DHT22;9420;50.876;7.012;2022-09-25T10:13:15;15.90;99.90
18581;DHT22;9420;50.876;7.012;2022-09-25T10:15:49;16.10;99.90
18581;DHT22;9420;50.876;7.012;2022-09-25T10:18:20;16.30;99.90
18581;DHT22;9420;50.876;7.012;2022-09-25T10:20:58;16.50;99.90
18581;DHT22;9420;50.876;7.012;2022-09-25T10:23:34;16.70;99.90
18581;DHT22;9420;50.876;7.012;2022-09-25T10:26:22;16.80;99.90
18581;DHT22;9420;50.876;7.012;2022-09-25T10:28:50;16.70;99.90
18581;DHT22;9420;50.876;7.012;2022-09-25T10:31:19;16.60;99.90
18581;DHT22;9420;50.876;7.012;2022-09-25T10:34:05;16.60;99.90
18581;DHT22;9420;50.876;7.012;2022-09-25T10:36:47;16.80;99.90
18581;DHT22;9420;50.876;7.012;2022-09-25T10:39:26;17.00;99.90
18581;DHT22;9420;50.876;7.012;2022-09-25T10:41:55;17.20;99.90
18581;DHT22;9420;50.876;7.012;2022-09-25T10:44:29;17.00;99.90
18581;DHT22;9420;50.876;7.012;2022-09-25T10:47:29;16.40;99.90
18581;DHT22;9420;50.876;7.012;2022-09-25T10:50:19;16.50;99.90
18581;DHT22;9420;50.876;7.012;2022-09-25T10:52:49;16.60;99.90
18581;DHT22;9420;50.876;7.012;2022-09-25T10:55:21;16.50;99.90
18581;DHT22;9420;50.876;7.012;2022-09-25T10:58:02;16.60;99.90
18581;DHT22;9420;50.876;7.012;2022-09-25T11:00:40;16.70;99.90
18581;DHT22;9420;50.876;7.012;2022-09-25T11:03:22;16.90;99.90
18581;DHT22;9420;50.876;7.012;2022-09-25T11:05:56;17.00;99.90
18581;DHT22;9420;50.876;7.012;2022-09-25T11:08:28;17.20;99.90
18581;DHT22;9420;50.876;7.012;2022-09-25T11:11:00;17.30;99.90
18581;DHT22;9420;50.876;7.012;2022-09-25T11:13:30;17.60;99.90
18581;DHT22;9420;50.876;7.012;2022-09-25T11:16:04;17.90;99.90
18581;DHT22;9420;50.876;7.012;2022-09-25T11:18:41;18.10;99.90
18581;DHT22;9420;50.876;7.012;2022-09-25T11:21:20;18.00;99.90
18581;DHT22;9420;50.876;7.012;2022-09-25T11:24:08;19.30;99.90
18581;DHT22;9420;50.876;7.012;2022-09-25T11:26:44;18.80;99.90
18581;DHT22;9420;50.876;7.012;2022-09-25T11:29:21;18.80;99.90
18581;DHT22;9420;50.876;7.012;2022-09-25T11:31:59;20.20;99.90
18581;DHT22;9420;50.876;7.012;2022-09-25T11:34:50;21.00;99.90
18581;DHT22;9420;50.876;7.012;2022-09-25T11:37:32;21.50;99.90
18581;DHT22;9420;50.876;7.012;2022-09-25T11:40:18;20.80;99.90
18581;DHT22;9420;50.876;7.012;2022-09-25T11:43:14;21.00;99.90
18581;DHT22;9420;50.876;7.012;2022-09-25T11:45:49;20.80;99.90
18581;DHT22;9420;50.876;7.012;2022-09-25T11:48:27;20.90;99.90
18581;DHT22;9420;50.876;7.012;2022-09-25T11:51:06;21.10;99.90
18581;DHT22;9420;50.876;7.012;2022-09-25T11:53:45;21.60;99.90
18581;DHT22;9420;50.876;7.012;2022-09-25T11:56:28;22.20;99.90
18581;DHT22;9420;50.876;7.012;2022-09-25T11:59:20;22.10;99.90
18581;DHT22;9420;50.876;7.012;2022-09-25T12:02:00;22.20;99.90
18581;DHT22;9420;50.876;7.012;2022-09-25T12:05:06;23.10;99.90
18581;DHT22;9420;50.876;7.012;2022-09-25T12:08:02;24.30;99.90
18581;DHT22;9420;50.876;7.012;2022-09-25T12:10:50;23.90;99.60
18581;DHT22;9420;50.876;7.012;2022-09-25T12:13:28;22.00;99.90
18581;DHT22;9420;50.876;7.012;2022-09-25T12:16:12;20.90;99.90
18581;DHT22;9420;50.876;7.012;2022-09-25T12:19:00;20.10;99.90
18581;DHT22;9420;50.876;7.012;2022-09-25T12:21:40;19.90;99.90
18581;DHT22;9420;50.876;7.012;2022-09-25T12:24:25;19.80;99.90
18581;DHT22;9420;50.876;7.012;2022-09-25T12:27:08;20.10;99.90
18581;DHT22;9420;50.876;7.012;2022-09-25T12:29:53;20.70;99.90
18581;DHT22;9420;50.876;7.012;2022-09-25T12:32:44;22.20;99.90
18581;DHT22;9420;50.876;7.012;2022-09-25T12:35:28;23.20;99.90
18581;DHT22;9420;50.876;7.012;2022-09-25T12:38:07;23.90;99.90
18581;DHT22;9420;50.876;7.012;2022-09-25T12:40:47;24.90;96.20
18581;DHT22;9420;50.876;7.012;2022-09-25T12:43:21;24.40;96.60
18581;DHT22;9420;50.876;7.012;2022-09-25T12:45:55;24.90;93.30
18581;DHT22;9420;50.876;7.012;2022-09-25T12:48:35;23.10;95.30
18581;DHT22;9420;50.876;7.012;2022-09-25T12:51:13;21.10;97.60
18581;DHT22;9420;50.876;7.012;2022-09-25T12:53:49;19.80;99.90
18581;DHT22;9420;50.876;7.012;2022-09-25T12:56:24;19.60;99.90
18581;DHT22;9420;50.876;7.012;2022-09-25T12:59:00;20.40;99.90
18581;DHT22;9420;50.876;7.012;2022-09-25T13:01:39;21.80;99.90
18581;DHT22;9420;50.876;7.012;2022-09-25T13:04:21;22.30;99.90
18581;DHT22;9420;50.876;7.012;2022-09-25T13:07:06;22.70;99.90
18581;DHT22;9420;50.876;7.012;2022-09-25T13:09:42;23.20;98.70
18581;DHT22;9420;50.876;7.012;2022-09-25T13:12:21;22.50;98.70
18581;DHT22;9420;50.876;7.012;2022-09-25T13:15:00;22.70;98.50
18581;DHT22;9420;50.876;7.012;2022-09-25T13:17:31;23.60;98.90
18581;DHT22;9420;50.876;7.012;2022-09-25T13:23:26;23.40;94.00
18581;DHT22;9420;50.876;7.012;2022-09-25T13:25:58;22.70;93.70
18581;DHT22;9420;50.876;7.012;2022-09-25T13:28:37;20.90;97.40
18581;DHT22;9420;50.876;7.012;2022-09-25T13:31:09;20.70;99.20
18581;DHT22;9420;50.876;7.012;2022-09-25T13:33:43;21.40;97.60
18581;DHT22;9420;50.876;7.012;2022-09-25T13:39:19;22.90;94.40
18581;DHT22;9420;50.876;7.012;2022-09-25T13:42:13;23.10;93.80
18581;DHT22;9420;50.876;7.012;2022-09-25T13:48:09;25.10;91.20
18581;DHT22;9420;50.876;7.012;2022-09-25T13:50:39;25.10;88.80
18581;DHT22;9420;50.876;7.012;2022-09-25T13:53:26;24.10;89.30
18581;DHT22;9420;50.876;7.012;2022-09-25T13:56:25;24.00;90.40
18581;DHT22;9420;50.876;7.012;2022-09-25T13:59:02;24.80;93.70
18581;DHT22;9420;50.876;7.012;2022-09-25T14:01:48;24.90;92.50
18581;DHT22;9420;50.876;7.012;2022-09-25T14:04:35;25.70;88.20
18581;DHT22;9420;50.876;7.012;2022-09-25T14:07:11;25.30;85.80
18581;DHT22;9420;50.876;7.012;2022-09-25T14:09:46;25.70;81.50
18581;DHT22;9420;50.876;7.012;2022-09-25T14:12:26;25.10;84.30
18581;DHT22;9420;50.876;7.012;2022-09-25T14:15:00;25.60;82.00
18581;DHT22;9420;50.876;7.012;2022-09-25T14:17:34;26.10;81.80
18581;DHT22;9420;50.876;7.012;2022-09-25T14:20:05;24.70;81.70
18581;DHT22;9420;50.876;7.012;2022-09-25T14:22:50;23.00;84.30
18581;DHT22;9420;50.876;7.012;2022-09-25T14:25:26;21.80;89.00
18581;DHT22;9420;50.876;7.012;2022-09-25T14:27:57;21.00;91.20
18581;DHT22;9420;50.876;7.012;2022-09-25T14:30:26;20.20;93.30
18581;DHT22;9420;50.876;7.012;2022-09-25T14:36:12;19.40;99.60
18581;DHT22;9420;50.876;7.012;2022-09-25T14:39:04;20.20;99.90
18581;DHT22;9420;50.876;7.012;2022-09-25T14:41:54;20.20;99.70
18581;DHT22;9420;50.876;7.012;2022-09-25T14:48:05;24.00;89.70
18581;DHT22;9420;50.876;7.012;2022-09-25T14:50:51;24.90;89.60
18581;DHT22;9420;50.876;7.012;2022-09-25T14:53:24;25.70;82.60
18581;DHT22;9420;50.876;7.012;2022-09-25T14:55:56;26.10;79.00
18581;DHT22;9420;50.876;7.012;2022-09-25T14:58:27;25.80;79.30
18581;DHT22;9420;50.876;7.012;2022-09-25T15:01:03;23.80;82.10
18581;DHT22;9420;50.876;7.012;2022-09-25T15:03:45;22.20;88.90
18581;DHT22;9420;50.876;7.012;2022-09-25T15:06:24;21.10;92.40
18581;DHT22;9420;50.876;7.012;2022-09-25T15:08:53;20.30;96.40
18581;DHT22;9420;50.876;7.012;2022-09-25T15:11:23;20.90;96.20
18581;DHT22;9420;50.876;7.012;2022-09-25T15:14:07;22.80;95.40
18581;DHT22;9420;50.876;7.012;2022-09-25T15:16:36;24.00;93.40
18581;DHT22;9420;50.876;7.012;2022-09-25T15:19:25;24.90;88.20
18581;DHT22;9420;50.876;7.012;2022-09-25T15:21:59;25.40;86.10
18581;DHT22;9420;50.876;7.012;2022-09-25T15:24:28;25.70;86.20
18581;DHT22;9420;50.876;7.012;2022-09-25T15:26:59;25.50;83.60
18581;DHT22;9420;50.876;7.012;2022-09-25T15:29:31;25.10;81.50
18581;DHT22;9420;50.876;7.012;2022-09-25T15:32:01;24.30;80.00
18581;DHT22;9420;50.876;7.012;2022-09-25T15:34:31;24.20;81.20
18581;DHT22;9420;50.876;7.012;2022-09-25T15:37:19;23.90;82.70
18581;DHT22;9420;50.876;7.012;2022-09-25T15:39:54;23.60;80.90
18581;DHT22;9420;50.876;7.012;2022-09-25T15:42:22;23.50;80.60
18581;DHT22;9420;50.876;7.012;2022-09-25T15:44:49;23.30;81.50
18581;DHT22;9420;50.876;7.012;2022-09-25T15:47:49;23.50;83.40
18581;DHT22;9420;50.876;7.012;2022-09-25T15:50:22;23.90;86.40
18581;DHT22;9420;50.876;7.012;2022-09-25T15:52:56;23.80;83.20
18581;DHT22;9420;50.876;7.012;2022-09-25T15:55:26;23.80;84.10
18581;DHT22;9420;50.876;7.012;2022-09-25T15:58:04;23.70;85.10
18581;DHT22;9420;50.876;7.012;2022-09-25T16:00:36;23.00;89.50
18581;DHT22;9420;50.876;7.012;2022-09-25T16:03:23;21.60;89.00
18581;DHT22;9420;50.876;7.012;2022-09-25T16:06:12;20.10;92.30
18581;DHT22;9420;50.876;7.012;2022-09-25T16:08:42;19.20;94.70
18581;DHT22;9420;50.876;7.012;2022-09-25T16:11:17;18.90;99.90
18581;DHT22;9420;50.876;7.012;2022-09-25T16:13:48;18.70;99.90
18581;DHT22;9420;50.876;7.012;2022-09-25T16:16:18;18.60;99.90
18581;DHT22;9420;50.876;7.012;2022-09-25T16:18:48;18.50;99.90
18581;DHT22;9420;50.876;7.012;2022-09-25T16:21:22;18.20;99.90
18581;DHT22;9420;50.876;7.012;2022-09-25T16:23:57;18.10;99.90
18581;DHT22;9420;50.876;7.012;2022-09-25T16:26:31;17.90;99.90
18581;DHT22;9420;50.876;7.012;2022-09-25T16:29:13;17.60;99.90
18581;DHT22;9420;50.876;7.012;2022-09-25T16:31:45;17.50;99.90
18581;DHT22;9420;50.876;7.012;2022-09-25T16:34:20;17.20;99.90
18581;DHT22;9420;50.876;7.012;2022-09-25T16:36:53;17.30;99.90
18581;DHT22;9420;50.876;7.012;2022-09-25T16:39:27;17.20;99.90
18581;DHT22;9420;50.876;7.012;2022-09-25T16:41:56;17.00;99.90
18581;DHT22;9420;50.876;7.012;2022-09-25T16:44:45;16.90;99.90
18581;DHT22;9420;50.876;7.012;2022-09-25T16:47:15;16.80;99.90
18581;DHT22;9420;50.876;7.012;2022-09-25T16:49:45;16.70;99.90